sensor_id;sensor_type;location;lat;lon;timestamp;pressure;altitude;pressure_sealevel;temperature;humidity
16777;BME280;8505;49.456;8.164;2022-07-11T00:01:18;-20483.22;;;18.37;79.55
16777;BME280;8505;49.456;8.164;2022-07-11T00:03:46;-20478.66;;;18.22;80.29
16777;BME280;8505;49.456;8.164;2022-07-11T00:06:13;-20475.63;;;18.12;81.49
16777;BME280;8505;49.456;8.164;2022-07-11T00:08:41;-20473.66;;;18.06;81.92
16777;BME280;8505;49.456;8.164;2022-07-11T00:11:09;-20473.03;;;18.03;82.20
16777;BME280;8505;49.456;8.164;2022-07-11T00:13:36;-20471.69;;;17.99;82.95
16777;BME280;8505;49.456;8.164;2022-07-11T00:16:06;-20471.53;;;17.98;82.82
16777;BME280;8505;49.456;8.164;2022-07-11T00:18:38;-20478.66;;;18.22;81.56
16777;BME280;8505;49.456;8.164;2022-07-11T00:21:06;-20481.56;;;18.32;81.30
16777;BME280;8505;49.456;8.164;2022-07-11T00:23:33;-20481.25;;;18.31;80.88
16777;BME280;8505;49.456;8.164;2022-07-11T00:26:01;-20482.63;;;18.35;81.06
16777;BME280;8505;49.456;8.164;2022-07-11T00:28:29;-20475.03;;;18.10;81.68
16777;BME280;8505;49.456;8.164;2022-07-11T00:30:57;-20468.94;;;17.90;83.25
16777;BME280;8505;49.456;8.164;2022-07-11T00:33:26;-20467.13;;;17.84;84.12
16777;BME280;8505;49.456;8.164;2022-07-11T00:35:53;-20466.50;;;17.82;85.09
16777;BME280;8505;49.456;8.164;2022-07-11T00:38:21;-20464.97;;;17.77;84.55
16777;BME280;8505;49.456;8.164;2022-07-11T00:40:48;-20461.50;;;17.65;85.75
16777;BME280;8505;49.456;8.164;2022-07-11T00:43:16;-20461.34;;;17.64;86.00
16777;BME280;8505;49.456;8.164;2022-07-11T00:45:48;-20461.94;;;17.67;86.14
16777;BME280;8505;49.456;8.164;2022-07-11T00:48:15;-20461.34;;;17.64;86.58
16777;BME280;8505;49.456;8.164;2022-07-11T00:50:44;-20461.34;;;17.64;86.11
16777;BME280;8505;49.456;8.164;2022-07-11T00:53:12;-20457.22;;;17.51;86.96
16777;BME280;8505;49.456;8.164;2022-07-11T00:55:40;-20454.63;;;17.42;87.88
16777;BME280;8505;49.456;8.164;2022-07-11T00:58:08;-20452.97;;;17.37;88.34
16777;BME280;8505;49.456;8.164;2022-07-11T01:00:36;-20451.13;;;17.30;88.46
16777;BME280;8505;49.456;8.164;2022-07-11T01:03:04;-20448.84;;;17.23;88.93
16777;BME280;8505;49.456;8.164;2022-07-11T01:05:31;-20449.47;;;17.25;89.26
16777;BME280;8505;49.456;8.164;2022-07-11T01:08:00;-20447.34;;;17.18;89.85
16777;BME280;8505;49.456;8.164;2022-07-11T01:10:28;-20445.81;;;17.13;90.46
16777;BME280;8505;49.456;8.164;2022-07-11T01:12:56;-20444.59;;;17.09;91.06
16777;BME280;8505;49.456;8.164;2022-07-11T01:15:24;-20443.53;;;17.05;90.72
16777;BME280;8505;49.456;8.164;2022-07-11T01:17:52;-20440.94;;;16.97;91.92
16777;BME280;8505;49.456;8.164;2022-07-11T01:20:20;-20437.59;;;16.85;92.21
16777;BME280;8505;49.456;8.164;2022-07-11T01:22:52;-20439.28;;;16.91;92.37
16777;BME280;8505;49.456;8.164;2022-07-11T01:25:21;-20436.53;;;16.82;92.43
16777;BME280;8505;49.456;8.164;2022-07-11T01:27:59;-20440.63;;;16.96;92.41
16777;BME280;8505;49.456;8.164;2022-07-11T01:30:28;-20442.63;;;17.02;92.51
16777;BME280;8505;49.456;8.164;2022-07-11T01:32:56;-20441.09;;;16.97;92.15
16777;BME280;8505;49.456;8.164;2022-07-11T01:35:24;-20436.84;;;16.83;93.30
16777;BME280;8505;49.456;8.164;2022-07-11T01:37:53;-20436.69;;;16.82;93.74
16777;BME280;8505;49.456;8.164;2022-07-11T01:40:29;-20435.78;;;16.79;94.23
16777;BME280;8505;49.456;8.164;2022-07-11T01:42:57;-20436.06;;;16.80;94.35
16777;BME280;8505;49.456;8.164;2022-07-11T01:45:25;-20431.34;;;16.65;95.33
16777;BME280;8505;49.456;8.164;2022-07-11T01:47:53;-20435.78;;;16.79;94.84
16777;BME280;8505;49.456;8.164;2022-07-11T01:50:20;-20430.59;;;16.62;95.96
16777;BME280;8505;49.456;8.164;2022-07-11T01:52:48;-20428.47;;;16.55;96.30
16777;BME280;8505;49.456;8.164;2022-07-11T01:55:16;-20430.28;;;16.61;96.28
16777;BME280;8505;49.456;8.164;2022-07-11T01:57:45;-20433.03;;;16.70;96.08
16777;BME280;8505;49.456;8.164;2022-07-11T02:00:13;-20433.94;;;16.73;95.71
16777;BME280;8505;49.456;8.164;2022-07-11T02:02:40;-20434.56;;;16.75;95.34
16777;BME280;8505;49.456;8.164;2022-07-11T02:05:08;-20437.91;;;16.86;94.74
16777;BME280;8505;49.456;8.164;2022-07-11T02:07:36;-20437.13;;;16.84;94.84
16777;BME280;8505;49.456;8.164;2022-07-11T02:10:21;-20436.38;;;16.81;95.28
16777;BME280;8505;49.456;8.164;2022-07-11T02:12:50;-20434.09;;;16.74;96.17
16777;BME280;8505;49.456;8.164;2022-07-11T02:15:18;-20433.34;;;16.71;96.29
16777;BME280;8505;49.456;8.164;2022-07-11T02:17:46;-20432.13;;;16.67;96.29
16777;BME280;8505;49.456;8.164;2022-07-11T02:20:13;-20435.16;;;16.77;96.26
16777;BME280;8505;49.456;8.164;2022-07-11T02:22:43;-20432.13;;;16.67;96.57
16777;BME280;8505;49.456;8.164;2022-07-11T02:25:11;-20433.19;;;16.71;96.57
16777;BME280;8505;49.456;8.164;2022-07-11T02:27:39;-20433.78;;;16.73;96.59
16777;BME280;8505;49.456;8.164;2022-07-11T02:30:09;-20433.78;;;16.73;96.51
16777;BME280;8505;49.456;8.164;2022-07-11T02:32:37;-20431.97;;;16.67;97.04
16777;BME280;8505;49.456;8.164;2022-07-11T02:35:05;-20435.78;;;16.79;96.00
16777;BME280;8505;49.456;8.164;2022-07-11T02:37:33;-20436.06;;;16.80;96.02
16777;BME280;8505;49.456;8.164;2022-07-11T02:40:01;-20436.06;;;16.80;96.32
16777;BME280;8505;49.456;8.164;2022-07-11T02:42:29;-20435.16;;;16.77;96.55
16777;BME280;8505;49.456;8.164;2022-07-11T02:44:56;-20436.06;;;16.80;96.32
16777;BME280;8505;49.456;8.164;2022-07-11T02:47:25;-20438.66;;;16.89;95.66
16777;BME280;8505;49.456;8.164;2022-07-11T02:49:53;-20436.38;;;16.81;95.96
16777;BME280;8505;49.456;8.164;2022-07-11T02:52:21;-20436.06;;;16.80;96.18
16777;BME280;8505;49.456;8.164;2022-07-11T02:54:48;-20436.38;;;16.81;96.18
16777;BME280;8505;49.456;8.164;2022-07-11T02:57:16;-20439.41;;;16.91;95.88
16777;BME280;8505;49.456;8.164;2022-07-11T02:59:44;-20439.13;;;16.90;95.79
16777;BME280;8505;49.456;8.164;2022-07-11T03:02:11;-20435.78;;;16.79;95.77
16777;BME280;8505;49.456;8.164;2022-07-11T03:04:40;-20438.38;;;16.88;95.94
16777;BME280;8505;49.456;8.164;2022-07-11T03:07:08;-20439.13;;;16.90;95.98
16777;BME280;8505;49.456;8.164;2022-07-11T03:09:36;-20438.22;;;16.87;95.56
16777;BME280;8505;49.456;8.164;2022-07-11T03:12:05;-20435.00;;;16.77;96.49
16777;BME280;8505;49.456;8.164;2022-07-11T03:14:32;-20435.78;;;16.79;97.21
16777;BME280;8505;49.456;8.164;2022-07-11T03:17:00;-20435.00;;;16.77;97.35
16777;BME280;8505;49.456;8.164;2022-07-11T03:19:28;-20436.38;;;16.81;96.76
16777;BME280;8505;49.456;8.164;2022-07-11T03:21:57;-20433.63;;;16.72;97.40
16777;BME280;8505;49.456;8.164;2022-07-11T03:24:24;-20432.72;;;16.69;97.69
16777;BME280;8505;49.456;8.164;2022-07-11T03:26:52;-20434.56;;;16.75;97.43
16777;BME280;8505;49.456;8.164;2022-07-11T03:29:20;-20436.06;;;16.80;97.27
16777;BME280;8505;49.456;8.164;2022-07-11T03:31:47;-20434.56;;;16.75;96.75
16777;BME280;8505;49.456;8.164;2022-07-11T03:34:15;-20437.28;;;16.84;96.47
16777;BME280;8505;49.456;8.164;2022-07-11T03:36:43;-20439.41;;;16.91;96.20
16777;BME280;8505;49.456;8.164;2022-07-11T03:39:14;-20439.13;;;16.90;96.59
16777;BME280;8505;49.456;8.164;2022-07-11T03:41:41;-20437.91;;;16.86;96.66
16777;BME280;8505;49.456;8.164;2022-07-11T03:44:09;-20437.59;;;16.85;96.89
16777;BME280;8505;49.456;8.164;2022-07-11T03:46:37;-20437.59;;;16.85;96.98
16777;BME280;8505;49.456;8.164;2022-07-11T03:49:04;-20437.59;;;16.85;96.60
16777;BME280;8505;49.456;8.164;2022-07-11T03:51:32;-20439.41;;;16.91;96.80
16777;BME280;8505;49.456;8.164;2022-07-11T03:53:59;-20439.72;;;16.92;95.89
16777;BME280;8505;49.456;8.164;2022-07-11T03:56:29;-20444.28;;;17.08;95.21
16777;BME280;8505;49.456;8.164;2022-07-11T03:58:56;-20444.59;;;17.09;94.19
16777;BME280;8505;49.456;8.164;2022-07-11T04:01:24;-20445.81;;;17.13;94.46
16777;BME280;8505;49.456;8.164;2022-07-11T04:03:52;-20446.13;;;17.14;94.05
16777;BME280;8505;49.456;8.164;2022-07-11T04:06:21;-20447.34;;;17.18;94.02
16777;BME280;8505;49.456;8.164;2022-07-11T04:08:49;-20446.72;;;17.16;94.11
16777;BME280;8505;49.456;8.164;2022-07-11T04:11:16;-20447.34;;;17.18;93.82
16777;BME280;8505;49.456;8.164;2022-07-11T04:13:45;-20447.34;;;17.18;94.13
16777;BME280;8505;49.456;8.164;2022-07-11T04:16:13;-20446.72;;;17.16;94.11
16777;BME280;8505;49.456;8.164;2022-07-11T04:18:41;-20443.06;;;17.04;94.98
16777;BME280;8505;49.456;8.164;2022-07-11T04:21:09;-20440.19;;;16.94;95.63
16777;BME280;8505;49.456;8.164;2022-07-11T04:23:37;-20440.34;;;16.95;95.97
16777;BME280;8505;49.456;8.164;2022-07-11T04:26:05;-20440.34;;;16.95;96.16
16777;BME280;8505;49.456;8.164;2022-07-11T04:28:33;-20442.16;;;17.01;95.89
16777;BME280;8505;49.456;8.164;2022-07-11T04:31:02;-20441.25;;;16.98;95.89
16777;BME280;8505;49.456;8.164;2022-07-11T04:33:30;-20441.25;;;16.98;96.17
16777;BME280;8505;49.456;8.164;2022-07-11T04:35:57;-20442.47;;;17.02;96.04
16777;BME280;8505;49.456;8.164;2022-07-11T04:38:25;-20447.66;;;17.19;95.63
16777;BME280;8505;49.456;8.164;2022-07-11T04:40:53;-20451.00;;;17.30;94.57
16777;BME280;8505;49.456;8.164;2022-07-11T04:43:20;-20449.78;;;17.26;94.44
16777;BME280;8505;49.456;8.164;2022-07-11T04:45:48;-20448.41;;;17.21;94.60
16777;BME280;8505;49.456;8.164;2022-07-11T04:48:17;-20452.06;;;17.34;93.77
16777;BME280;8505;49.456;8.164;2022-07-11T04:50:45;-20451.44;;;17.32;93.52
16777;BME280;8505;49.456;8.164;2022-07-11T04:53:13;-20456.00;;;17.47;92.91
16777;BME280;8505;49.456;8.164;2022-07-11T04:55:40;-20454.47;;;17.42;92.48
16777;BME280;8505;49.456;8.164;2022-07-11T04:58:08;-20456.16;;;17.47;92.44
16777;BME280;8505;49.456;8.164;2022-07-11T05:00:36;-20457.53;;;17.52;92.02
16777;BME280;8505;49.456;8.164;2022-07-11T05:03:08;-20456.63;;;17.49;92.73
16777;BME280;8505;49.456;8.164;2022-07-11T05:05:37;-20458.59;;;17.55;92.59
16777;BME280;8505;49.456;8.164;2022-07-11T05:08:05;-20459.81;;;17.59;92.47
16777;BME280;8505;49.456;8.164;2022-07-11T05:10:33;-20465.44;;;17.78;91.28
16777;BME280;8505;49.456;8.164;2022-07-11T05:13:02;-20468.19;;;17.87;90.36
16777;BME280;8505;49.456;8.164;2022-07-11T05:15:31;-20471.97;;;18.00;89.69
16777;BME280;8505;49.456;8.164;2022-07-11T05:17:59;-20473.19;;;18.04;89.55
16777;BME280;8505;49.456;8.164;2022-07-11T05:20:26;-20478.22;;;18.21;88.47
16777;BME280;8505;49.456;8.164;2022-07-11T05:22:55;-20475.31;;;18.11;88.55
16777;BME280;8505;49.456;8.164;2022-07-11T05:25:23;-20477.00;;;18.17;88.02
16777;BME280;8505;49.456;8.164;2022-07-11T05:27:51;-20480.19;;;18.27;86.71
16777;BME280;8505;49.456;8.164;2022-07-11T05:30:19;-20482.63;;;18.35;86.68
16777;BME280;8505;49.456;8.164;2022-07-11T05:32:46;-20484.00;;;18.40;86.70
16777;BME280;8505;49.456;8.164;2022-07-11T05:35:14;-20487.78;;;18.53;85.91
16777;BME280;8505;49.456;8.164;2022-07-11T05:37:42;-20492.03;;;18.67;84.83
16777;BME280;8505;49.456;8.164;2022-07-11T05:40:11;-20491.28;;;18.64;85.31
16777;BME280;8505;49.456;8.164;2022-07-11T05:42:39;-20495.53;;;18.79;84.47
16777;BME280;8505;49.456;8.164;2022-07-11T05:45:08;-20494.31;;;18.74;84.82
16777;BME280;8505;49.456;8.164;2022-07-11T05:47:36;-20496.91;;;18.83;84.79
16777;BME280;8505;49.456;8.164;2022-07-11T05:50:04;-20502.38;;;19.01;83.81
16777;BME280;8505;49.456;8.164;2022-07-11T05:52:32;-20501.78;;;18.99;83.81
16777;BME280;8505;49.456;8.164;2022-07-11T05:55:00;-20506.94;;;19.17;83.00
16777;BME280;8505;49.456;8.164;2022-07-11T05:57:29;-20502.69;;;19.02;83.94
16777;BME280;8505;49.456;8.164;2022-07-11T05:59:57;-20512.09;;;19.34;82.23
16777;BME280;8505;49.456;8.164;2022-07-11T06:02:25;-20513.16;;;19.37;81.36
16777;BME280;8505;49.456;8.164;2022-07-11T06:04:53;-20509.22;;;19.24;81.66
16777;BME280;8505;49.456;8.164;2022-07-11T06:07:22;-20509.38;;;19.25;82.11
16777;BME280;8505;49.456;8.164;2022-07-11T06:10:08;-20515.88;;;19.46;81.39
16777;BME280;8505;49.456;8.164;2022-07-11T06:12:37;-20524.25;;;19.74;79.31
16777;BME280;8505;49.456;8.164;2022-07-11T06:15:05;-20533.97;;;20.07;78.10
16777;BME280;8505;49.456;8.164;2022-07-11T06:17:33;-20537.59;;;20.19;77.39
16777;BME280;8505;49.456;8.164;2022-07-11T06:20:01;-20543.97;;;20.40;75.43
16777;BME280;8505;49.456;8.164;2022-07-11T06:22:28;-20548.38;;;20.55;74.49
16777;BME280;8505;49.456;8.164;2022-07-11T06:24:56;-20553.38;;;20.72;74.24
16777;BME280;8505;49.456;8.164;2022-07-11T06:27:24;-20560.38;;;20.95;72.91
16777;BME280;8505;49.456;8.164;2022-07-11T06:29:53;-20563.09;;;21.04;72.79
16777;BME280;8505;49.456;8.164;2022-07-11T06:32:20;-20565.81;;;21.13;71.97
16777;BME280;8505;49.456;8.164;2022-07-11T06:34:50;-20570.38;;;21.28;70.32
16777;BME280;8505;49.456;8.164;2022-07-11T06:37:17;-20572.50;;;21.36;69.40
16777;BME280;8505;49.456;8.164;2022-07-11T06:39:45;-20566.72;;;21.16;70.80
16777;BME280;8505;49.456;8.164;2022-07-11T06:42:13;-20591.28;;;21.98;68.09
16777;BME280;8505;49.456;8.164;2022-07-11T06:44:41;-20596.44;;;22.16;64.51
16777;BME280;8505;49.456;8.164;2022-07-11T06:47:10;-20615.97;;;22.81;63.47
16777;BME280;8505;49.456;8.164;2022-07-11T06:49:37;-20633.84;;;23.41;59.24
16777;BME280;8505;49.456;8.164;2022-07-11T06:52:05;-20628.84;;;23.24;59.41
16777;BME280;8505;49.456;8.164;2022-07-11T06:54:33;-20633.84;;;23.41;59.14
16777;BME280;8505;49.456;8.164;2022-07-11T06:57:01;-20614.31;;;22.75;62.10
16777;BME280;8505;49.456;8.164;2022-07-11T06:59:36;-20652.44;;;24.03;58.65
16777;BME280;8505;49.456;8.164;2022-07-11T07:02:04;-20691.75;;;25.35;52.96
16777;BME280;8505;49.456;8.164;2022-07-11T07:04:33;-20739.16;;;26.94;47.85
16777;BME280;8505;49.456;8.164;2022-07-11T07:07:01;-20730.69;;;26.66;46.62
16777;BME280;8505;49.456;8.164;2022-07-11T07:09:29;-20725.25;;;26.48;47.40
16777;BME280;8505;49.456;8.164;2022-07-11T07:11:57;-20711.53;;;26.01;48.60
16777;BME280;8505;49.456;8.164;2022-07-11T07:14:25;-20711.53;;;26.01;49.32
16777;BME280;8505;49.456;8.164;2022-07-11T07:16:52;-20690.53;;;25.31;49.63
16777;BME280;8505;49.456;8.164;2022-07-11T07:19:20;-20662.44;;;24.37;52.25
16777;BME280;8505;49.456;8.164;2022-07-11T07:21:49;-20642.47;;;23.70;53.80
16777;BME280;8505;49.456;8.164;2022-07-11T07:24:17;-20652.91;;;24.05;53.39
16777;BME280;8505;49.456;8.164;2022-07-11T07:26:45;-20660.63;;;24.31;53.18
16777;BME280;8505;49.456;8.164;2022-07-11T07:29:12;-20653.97;;;24.08;54.22
16777;BME280;8505;49.456;8.164;2022-07-11T07:31:40;-20653.66;;;24.07;53.02
16777;BME280;8505;49.456;8.164;2022-07-11T07:34:08;-20653.22;;;24.06;53.87
16777;BME280;8505;49.456;8.164;2022-07-11T07:36:36;-20653.34;;;24.06;53.42
16777;BME280;8505;49.456;8.164;2022-07-11T07:39:05;-20659.72;;;24.28;53.37
16777;BME280;8505;49.456;8.164;2022-07-11T07:41:33;-20642.78;;;23.71;54.56
16777;BME280;8505;49.456;8.164;2022-07-11T07:44:00;-20622.94;;;23.04;56.27
16777;BME280;8505;49.456;8.164;2022-07-11T07:46:28;-20630.06;;;23.28;56.38
16777;BME280;8505;49.456;8.164;2022-07-11T07:48:56;-20650.34;;;23.96;54.32
16777;BME280;8505;49.456;8.164;2022-07-11T07:51:26;-20655.16;;;24.12;53.00
16777;BME280;8505;49.456;8.164;2022-07-11T07:53:53;-20656.38;;;24.16;53.31
16777;BME280;8505;49.456;8.164;2022-07-11T07:56:23;-20634.00;;;23.41;55.96
16777;BME280;8505;49.456;8.164;2022-07-11T07:58:51;-20624.47;;;23.09;58.07
16777;BME280;8505;49.456;8.164;2022-07-11T08:01:19;-20607.19;;;22.52;59.43
16777;BME280;8505;49.456;8.164;2022-07-11T08:04:01;-20609.31;;;22.59;59.67
16777;BME280;8505;49.456;8.164;2022-07-11T08:06:30;-20606.44;;;22.49;60.01
16777;BME280;8505;49.456;8.164;2022-07-11T08:08:59;-20616.91;;;22.84;59.38
16777;BME280;8505;49.456;8.164;2022-07-11T08:11:28;-20608.56;;;22.56;60.14
16777;BME280;8505;49.456;8.164;2022-07-11T08:13:59;-20614.31;;;22.75;59.08
16777;BME280;8505;49.456;8.164;2022-07-11T08:16:27;-20619.78;;;22.94;59.01
16777;BME280;8505;49.456;8.164;2022-07-11T08:18:58;-20615.22;;;22.79;59.09
16777;BME280;8505;49.456;8.164;2022-07-11T08:21:27;-20633.25;;;23.39;57.45
16777;BME280;8505;49.456;8.164;2022-07-11T08:23:55;-20661.38;;;24.33;53.41
16777;BME280;8505;49.456;8.164;2022-07-11T08:26:22;-20687.69;;;25.21;51.07
16777;BME280;8505;49.456;8.164;2022-07-11T08:29:00;-20718.94;;;26.26;48.32
16777;BME280;8505;49.456;8.164;2022-07-11T08:31:27;-20737.47;;;26.89;46.40
16777;BME280;8505;49.456;8.164;2022-07-11T08:33:55;-20748.03;;;27.24;45.50
16777;BME280;8505;49.456;8.164;2022-07-11T08:36:25;-20721.66;;;26.35;46.37
16777;BME280;8505;49.456;8.164;2022-07-11T08:38:54;-20717.72;;;26.22;46.91
16777;BME280;8505;49.456;8.164;2022-07-11T08:41:22;-20704.13;;;25.77;48.66
16777;BME280;8505;49.456;8.164;2022-07-11T08:43:50;-20687.69;;;25.21;49.75
16777;BME280;8505;49.456;8.164;2022-07-11T08:46:20;-20681.47;;;25.01;49.55
16777;BME280;8505;49.456;8.164;2022-07-11T08:48:49;-20674.06;;;24.76;50.47
16777;BME280;8505;49.456;8.164;2022-07-11T08:51:17;-20668.34;;;24.56;51.53
16777;BME280;8505;49.456;8.164;2022-07-11T08:53:46;-20656.53;;;24.17;52.59
16777;BME280;8505;49.456;8.164;2022-07-11T08:56:14;-20667.72;;;24.54;52.08
16777;BME280;8505;49.456;8.164;2022-07-11T08:58:45;-20668.47;;;24.57;51.92
16777;BME280;8505;49.456;8.164;2022-07-11T09:01:25;-20676.94;;;24.85;50.85
16777;BME280;8505;49.456;8.164;2022-07-11T09:03:55;-20681.47;;;25.01;50.02
16777;BME280;8505;49.456;8.164;2022-07-11T09:06:23;-20706.09;;;25.83;48.96
16777;BME280;8505;49.456;8.164;2022-07-11T09:08:51;-20713.19;;;26.07;48.23
16777;BME280;8505;49.456;8.164;2022-07-11T09:11:18;-20710.19;;;25.97;47.75
16777;BME280;8505;49.456;8.164;2022-07-11T09:13:47;-20720.13;;;26.30;47.79
16777;BME280;8505;49.456;8.164;2022-07-11T09:16:17;-20730.09;;;26.64;46.17
16777;BME280;8505;49.456;8.164;2022-07-11T09:18:47;-20718.19;;;26.24;47.01
16777;BME280;8505;49.456;8.164;2022-07-11T09:21:15;-20698.69;;;25.58;48.59
16777;BME280;8505;49.456;8.164;2022-07-11T09:24:02;-20700.66;;;25.65;48.22
16777;BME280;8505;49.456;8.164;2022-07-11T09:26:49;-20701.41;;;25.67;47.88
16777;BME280;8505;49.456;8.164;2022-07-11T09:29:19;-20705.03;;;25.80;47.28
16777;BME280;8505;49.456;8.164;2022-07-11T09:31:49;-20730.09;;;26.64;45.15
16777;BME280;8505;49.456;8.164;2022-07-11T09:34:19;-20727.97;;;26.57;45.46
16777;BME280;8505;49.456;8.164;2022-07-11T09:36:48;-20692.06;;;25.36;47.33
16777;BME280;8505;49.456;8.164;2022-07-11T09:39:18;-20690.69;;;25.32;47.69
16777;BME280;8505;49.456;8.164;2022-07-11T09:41:47;-20692.66;;;25.38;47.46
16777;BME280;8505;49.456;8.164;2022-07-11T09:44:17;-20694.63;;;25.45;47.69
16777;BME280;8505;49.456;8.164;2022-07-11T09:46:46;-20683.59;;;25.08;48.63
16777;BME280;8505;49.456;8.164;2022-07-11T09:49:28;-20668.19;;;24.56;50.01
16777;BME280;8505;49.456;8.164;2022-07-11T09:52:06;-20663.50;;;24.40;50.68
16777;BME280;8505;49.456;8.164;2022-07-11T09:54:33;-20675.28;;;24.80;49.60
16777;BME280;8505;49.456;8.164;2022-07-11T09:57:09;-20665.16;;;24.46;51.26
16777;BME280;8505;49.456;8.164;2022-07-11T09:59:37;-20668.78;;;24.58;51.24
16777;BME280;8505;49.456;8.164;2022-07-11T10:02:05;-20647.31;;;23.86;53.06
16777;BME280;8505;49.456;8.164;2022-07-11T10:04:34;-20660.03;;;24.29;52.79
16777;BME280;8505;49.456;8.164;2022-07-11T10:07:02;-20654.13;;;24.09;53.10
16777;BME280;8505;49.456;8.164;2022-07-11T10:09:30;-20668.19;;;24.56;52.31
16777;BME280;8505;49.456;8.164;2022-07-11T10:11:58;-20690.25;;;25.30;50.21
16777;BME280;8505;49.456;8.164;2022-07-11T10:14:26;-20694.63;;;25.45;50.05
16777;BME280;8505;49.456;8.164;2022-07-11T10:16:58;-20692.81;;;25.39;49.84
16777;BME280;8505;49.456;8.164;2022-07-11T10:19:37;-20684.97;;;25.12;49.82
16777;BME280;8505;49.456;8.164;2022-07-11T10:22:29;-20700.81;;;25.65;49.23
16777;BME280;8505;49.456;8.164;2022-07-11T10:25:02;-20691.75;;;25.35;50.38
16777;BME280;8505;49.456;8.164;2022-07-11T10:27:36;-20711.09;;;26.00;47.79
16777;BME280;8505;49.456;8.164;2022-07-11T10:30:09;-20715.31;;;26.14;47.98
16777;BME280;8505;49.456;8.164;2022-07-11T10:32:57;-20719.53;;;26.28;48.24
16777;BME280;8505;49.456;8.164;2022-07-11T10:35:28;-20727.09;;;26.54;47.59
16777;BME280;8505;49.456;8.164;2022-07-11T10:37:56;-20728.59;;;26.59;47.61
16777;BME280;8505;49.456;8.164;2022-07-11T10:40:41;-20718.63;;;26.25;46.98
16777;BME280;8505;49.456;8.164;2022-07-11T10:43:09;-20711.69;;;26.02;47.91
16777;BME280;8505;49.456;8.164;2022-07-11T10:45:56;-20720.00;;;26.30;47.04
16777;BME280;8505;49.456;8.164;2022-07-11T10:48:25;-20715.00;;;26.13;47.20
16777;BME280;8505;49.456;8.164;2022-07-11T10:51:04;-20712.00;;;26.03;48.29
16777;BME280;8505;49.456;8.164;2022-07-11T10:53:45;-20695.69;;;25.48;48.32
16777;BME280;8505;49.456;8.164;2022-07-11T10:56:24;-20685.72;;;25.15;49.30
16777;BME280;8505;49.456;8.164;2022-07-11T10:59:15;-20687.22;;;25.20;47.99
16777;BME280;8505;49.456;8.164;2022-07-11T11:02:08;-20710.31;;;25.97;45.61
16777;BME280;8505;49.456;8.164;2022-07-11T11:04:42;-20718.63;;;26.25;45.26
16777;BME280;8505;49.456;8.164;2022-07-11T11:07:40;-20741.09;;;27.01;44.79
16777;BME280;8505;49.456;8.164;2022-07-11T11:13:18;-20728.88;;;26.60;44.82
16777;BME280;8505;49.456;8.164;2022-07-11T11:15:49;-20734.91;;;26.80;45.72
16777;BME280;8505;49.456;8.164;2022-07-11T11:21:21;-20746.09;;;27.18;43.45
16777;BME280;8505;49.456;8.164;2022-07-11T11:24:08;-20749.41;;;27.29;43.22
16777;BME280;8505;49.456;8.164;2022-07-11T11:26:52;-20747.00;;;27.21;43.75
16777;BME280;8505;49.456;8.164;2022-07-11T11:29:24;-20735.06;;;26.81;44.08
16777;BME280;8505;49.456;8.164;2022-07-11T11:31:54;-20739.75;;;26.96;44.58
16777;BME280;8505;49.456;8.164;2022-07-11T11:34:22;-20723.75;;;26.43;45.50
16777;BME280;8505;49.456;8.164;2022-07-11T11:36:58;-20732.50;;;26.72;45.17
16777;BME280;8505;49.456;8.164;2022-07-11T11:39:32;-20731.31;;;26.68;44.56
16777;BME280;8505;49.456;8.164;2022-07-11T11:42:06;-20737.94;;;26.90;43.78
16777;BME280;8505;49.456;8.164;2022-07-11T11:44:34;-20770.94;;;28.01;42.42
16777;BME280;8505;49.456;8.164;2022-07-11T11:47:13;-20769.00;;;27.95;41.77
16777;BME280;8505;49.456;8.164;2022-07-11T11:49:42;-20751.50;;;27.36;41.72
16777;BME280;8505;49.456;8.164;2022-07-11T11:52:10;-20753.78;;;27.43;42.21
16777;BME280;8505;49.456;8.164;2022-07-11T11:54:40;-20733.25;;;26.74;43.33
16777;BME280;8505;49.456;8.164;2022-07-11T11:57:09;-20734.00;;;26.77;43.33
16777;BME280;8505;49.456;8.164;2022-07-11T11:59:38;-20737.03;;;26.87;43.91
16777;BME280;8505;49.456;8.164;2022-07-11T12:02:07;-20742.91;;;27.07;43.34
16777;BME280;8505;49.456;8.164;2022-07-11T12:04:36;-20738.25;;;26.91;43.38
16777;BME280;8505;49.456;8.164;2022-07-11T12:07:04;-20751.97;;;27.37;42.80
16777;BME280;8505;49.456;8.164;2022-07-11T12:09:32;-20753.00;;;27.41;42.76
16777;BME280;8505;49.456;8.164;2022-07-11T12:12:26;-20756.94;;;27.54;41.60
16777;BME280;8505;49.456;8.164;2022-07-11T12:15:25;-20758.44;;;27.59;42.04
16777;BME280;8505;49.456;8.164;2022-07-11T12:17:58;-20786.00;;;28.52;40.50
16777;BME280;8505;49.456;8.164;2022-07-11T12:20:40;-20772.00;;;28.05;41.31
16777;BME280;8505;49.456;8.164;2022-07-11T12:23:10;-20772.00;;;28.05;41.06
16777;BME280;8505;49.456;8.164;2022-07-11T12:25:47;-20766.28;;;27.86;41.23
16777;BME280;8505;49.456;8.164;2022-07-11T12:28:16;-20756.94;;;27.54;42.38
16777;BME280;8505;49.456;8.164;2022-07-11T12:30:44;-20734.91;;;26.80;44.00
16777;BME280;8505;49.456;8.164;2022-07-11T12:33:13;-20727.09;;;26.54;44.53
16777;BME280;8505;49.456;8.164;2022-07-11T12:35:55;-20734.00;;;26.77;44.50
16777;BME280;8505;49.456;8.164;2022-07-11T12:38:24;-20732.81;;;26.73;44.23
16777;BME280;8505;49.456;8.164;2022-07-11T12:40:59;-20720.44;;;26.31;44.98
16777;BME280;8505;49.456;8.164;2022-07-11T12:43:42;-20732.81;;;26.73;44.21
16777;BME280;8505;49.456;8.164;2022-07-11T12:46:29;-20727.97;;;26.57;44.55
16777;BME280;8505;49.456;8.164;2022-07-11T12:48:57;-20725.25;;;26.48;44.34
16777;BME280;8505;49.456;8.164;2022-07-11T12:51:28;-20736.72;;;26.86;44.41
16777;BME280;8505;49.456;8.164;2022-07-11T12:54:04;-20729.50;;;26.62;44.93
16777;BME280;8505;49.456;8.164;2022-07-11T12:56:32;-20723.75;;;26.43;44.87
16777;BME280;8505;49.456;8.164;2022-07-11T12:59:02;-20732.97;;;26.73;44.51
16777;BME280;8505;49.456;8.164;2022-07-11T13:01:36;-20750.00;;;27.31;43.90
16777;BME280;8505;49.456;8.164;2022-07-11T13:04:04;-20748.50;;;27.26;43.76
16777;BME280;8505;49.456;8.164;2022-07-11T13:06:31;-20734.16;;;26.77;44.46
16777;BME280;8505;49.456;8.164;2022-07-11T13:09:16;-20733.72;;;26.76;44.60
16777;BME280;8505;49.456;8.164;2022-07-11T13:11:44;-20728.59;;;26.59;45.01
16777;BME280;8505;49.456;8.164;2022-07-11T13:14:13;-20737.94;;;26.90;44.21
16777;BME280;8505;49.456;8.164;2022-07-11T13:16:58;-20736.72;;;26.86;44.17
16777;BME280;8505;49.456;8.164;2022-07-11T13:19:26;-20740.34;;;26.98;43.62
16777;BME280;8505;49.456;8.164;2022-07-11T13:21:54;-20737.34;;;26.88;44.45